Main page


Airports :

Killarney, Ireland

Kerry Airport

latitude: 52-10-51N, longitude: 9-31-26W, elevation: 34 m

Current weather observation

The report was made 39 minutes ago, at 17:00 UTC
Wind 6 kt from the West, varying between West/Southwest and Northwest
Temperature 8°C
Humidity 57%
Pressure 1034 hPa
Visibility 10 km or more
no clouds below 1500 m and no cumulonimbus

METAR: EIKY 201700Z 27006KT 240V310 CAVOK 08/M00 Q1034

Time: 17:39 (17:39 UTC)


The report was made 39 minutes ago, at 17:00 UTC
Forecast valid from 20 at 18 UTC to 20 at 21 UTC
Wind 5 kt from the West/Northwest
Visibility 10 km or more
Few clouds at a height of 4000 ft

TAF: EIKY 201700Z 2018/2021 29005KT 9999 FEW040

Weather observations and forecasts of more than 4000 airports (METAR and TAF reports).

The available stations are represented by yellow and red dots on the map.

Hover mouse over dot to see the name of the station.

Then click to see weather observations and forecasts.

To change the map : click on the green buttons with a black cross to zoom in, on the green button with a dash to zoom out, or on the green arrows for adjacent maps.